createdAt,value
2023-04-23T00:01:58.087Z,98354.31
2023-04-23T00:04:27.011Z,98368.00
2023-04-23T00:06:55.245Z,98353.94
2023-04-23T00:09:24.751Z,98359.91
2023-04-23T00:11:53.202Z,98358.28
2023-04-23T00:14:21.220Z,98361.63
2023-04-23T00:16:49.546Z,98364.34
2023-04-23T00:19:17.319Z,98364.25
2023-04-23T00:21:45.120Z,98359.25
2023-04-23T00:24:12.832Z,98366.06
2023-04-23T00:26:42.041Z,98366.25
2023-04-23T00:29:09.637Z,98355.78
2023-04-23T00:31:37.426Z,98367.28
2023-04-23T00:34:05.134Z,98365.59
2023-04-23T00:36:32.919Z,98368.66
2023-04-23T00:39:00.578Z,98362.16
2023-04-23T00:41:29.273Z,98358.28
2023-04-23T00:43:59.406Z,98365.75
2023-04-23T00:46:27.641Z,98366.03
2023-04-23T00:48:55.722Z,98361.41
2023-04-23T00:51:24.584Z,98369.22
2023-04-23T00:53:52.908Z,98358.47
2023-04-23T00:56:20.880Z,98367.25
2023-04-23T00:58:50.877Z,98366.50
2023-04-23T01:01:20.738Z,98354.72
2023-04-23T01:03:50.465Z,98356.69
2023-04-23T01:06:18.797Z,98360.19
2023-04-23T01:08:46.996Z,98357.44
2023-04-23T01:11:15.608Z,98362.91
2023-04-23T01:13:44.044Z,98367.06
2023-04-23T01:16:12.548Z,98361.97
2023-04-23T01:18:42.099Z,98361.88
2023-04-23T01:21:11.526Z,98361.03
2023-04-23T01:23:41.068Z,98370.88
2023-04-23T01:26:10.696Z,98373.56
2023-04-23T01:28:38.747Z,98359.16
2023-04-23T01:31:15.496Z,98365.75
2023-04-23T01:33:44.040Z,98375.00
2023-04-23T01:36:12.273Z,98377.16
2023-04-23T01:38:42.060Z,98376.59
2023-04-23T01:41:10.578Z,98376.50
2023-04-23T01:43:38.641Z,98370.75
2023-04-23T01:46:06.758Z,98372.44
2023-04-23T01:48:34.919Z,98375.47
2023-04-23T01:51:03.021Z,98379.72
2023-04-23T01:53:31.281Z,98384.31
2023-04-23T01:56:02.312Z,98383.09
2023-04-23T01:58:30.500Z,98385.00
2023-04-23T02:00:58.189Z,98378.19
2023-04-23T02:03:26.264Z,98377.81
2023-04-23T02:05:55.518Z,98382.91
2023-04-23T02:08:23.365Z,98386.03
2023-04-23T02:10:50.940Z,98395.28
2023-04-23T02:13:19.915Z,98388.66
2023-04-23T02:15:47.570Z,98403.19
2023-04-23T02:18:15.237Z,98393.75
2023-04-23T02:20:42.877Z,98399.78
2023-04-23T02:23:10.625Z,98397.34
2023-04-23T02:25:39.299Z,98404.81
2023-04-23T02:28:07.666Z,98403.84
2023-04-23T02:30:37.079Z,98403.56
2023-04-23T02:33:05.088Z,98397.44
2023-04-23T02:35:32.708Z,98399.41
2023-04-23T02:38:00.255Z,98405.16
2023-04-23T02:40:27.842Z,98409.22
2023-04-23T02:42:55.756Z,98408.66
2023-04-23T02:45:23.338Z,98416.28
2023-04-23T02:47:53.389Z,98405.06
2023-04-23T02:50:21.363Z,98410.63
2023-04-23T02:52:49.794Z,98393.66
2023-04-23T02:55:17.719Z,98417.69
2023-04-23T02:57:45.463Z,98410.16
2023-04-23T03:00:15.150Z,98406.19
2023-04-23T03:02:42.940Z,98408.38
2023-04-23T03:05:12.690Z,98414.97
2023-04-23T03:07:40.610Z,98411.94
2023-04-23T03:10:09.355Z,98412.41
2023-04-23T03:12:36.982Z,98406.38
2023-04-23T03:15:05.012Z,98407.34
2023-04-23T03:17:32.598Z,98407.88
2023-04-23T03:20:00.846Z,98399.56
2023-04-23T03:22:29.758Z,98398.88
2023-04-23T03:24:57.406Z,98407.47
2023-04-23T03:27:24.982Z,98399.56
2023-04-23T03:29:52.602Z,98391.38
2023-04-23T03:32:20.298Z,98388.53
2023-04-23T03:34:47.956Z,98396.34
2023-04-23T03:37:15.610Z,98389.00
2023-04-23T03:39:44.591Z,98388.72
2023-04-23T03:42:12.174Z,98389.34
2023-04-23T03:44:40.070Z,98395.13
2023-04-23T03:47:07.875Z,98397.66
2023-04-23T03:49:35.516Z,98395.31
2023-04-23T03:52:03.175Z,98404.53
2023-04-23T03:54:30.882Z,98398.53
2023-04-23T03:57:00.346Z,98400.69
2023-04-23T03:59:28.012Z,98398.19
2023-04-23T04:01:55.594Z,98402.44
2023-04-23T04:04:23.328Z,98403.44
2023-04-23T04:06:51.176Z,98404.47
2023-04-23T04:09:18.878Z,98413.00
2023-04-23T04:11:46.801Z,98414.97
2023-04-23T04:14:15.841Z,98413.88
2023-04-23T04:16:43.425Z,98414.97
2023-04-23T04:19:11.034Z,98422.38
2023-04-23T04:21:38.695Z,98417.44
2023-04-23T04:24:06.681Z,98415.25
2023-04-23T04:26:34.833Z,98421.72
2023-04-23T04:29:02.666Z,98416.03
2023-04-23T04:31:32.278Z,98412.81
2023-04-23T04:33:59.970Z,98421.13
2023-04-23T04:36:28.890Z,98423.25
2023-04-23T04:38:58.556Z,98417.28
2023-04-23T04:41:27.663Z,98414.66
2023-04-23T04:43:55.720Z,98416.63
2023-04-23T04:46:23.447Z,98420.97
2023-04-23T04:48:52.424Z,98419.19
2023-04-23T04:51:20.030Z,98422.16
2023-04-23T04:53:47.640Z,98417.25
2023-04-23T04:56:15.344Z,98417.25
2023-04-23T04:58:42.947Z,98411.63
2023-04-23T05:01:10.930Z,98412.91
2023-04-23T05:03:39.373Z,98405.25
2023-04-23T05:06:08.728Z,98403.97
2023-04-23T05:08:36.424Z,98406.34
2023-04-23T05:11:05.066Z,98409.25
2023-04-23T05:13:32.885Z,98415.13
2023-04-23T05:16:00.659Z,98411.88
2023-04-23T05:18:28.875Z,98422.50
2023-04-23T05:20:56.565Z,98415.03
2023-04-23T05:23:25.690Z,98419.69
2023-04-23T05:25:55.915Z,98410.34
2023-04-23T05:28:23.707Z,98420.88
2023-04-23T05:30:51.775Z,98425.47
2023-04-23T05:33:19.444Z,98427.78
2023-04-23T05:35:47.214Z,98431.84
2023-04-23T05:38:14.829Z,98421.19
2023-04-23T05:40:43.784Z,98415.84
2023-04-23T05:43:11.448Z,98424.84
2023-04-23T05:45:39.118Z,98428.13
2023-04-23T05:48:06.813Z,98438.50
2023-04-23T05:50:34.384Z,98440.34
2023-04-23T05:53:02.039Z,98438.91
2023-04-23T05:55:29.740Z,98430.38
2023-04-23T05:57:58.705Z,98440.03
2023-04-23T06:00:26.338Z,98429.38
2023-04-23T06:02:54.191Z,98436.16
2023-04-23T06:05:22.296Z,98432.91
2023-04-23T06:07:50.152Z,98433.84
2023-04-23T06:10:17.789Z,98438.84
2023-04-23T06:12:45.550Z,98433.94
2023-04-23T06:15:14.545Z,98442.19
2023-04-23T06:17:42.219Z,98446.81
2023-04-23T06:20:11.743Z,98444.19
2023-04-23T06:22:39.613Z,98446.91
2023-04-23T06:25:07.994Z,98445.03
2023-04-23T06:27:35.555Z,98444.47
2023-04-23T06:30:03.375Z,98439.72
2023-04-23T06:32:32.321Z,98441.06
2023-04-23T06:35:01.998Z,98429.25
2023-04-23T06:37:31.589Z,98418.84
2023-04-23T06:40:00.052Z,98405.25
2023-04-23T06:42:27.688Z,98406.88
2023-04-23T06:44:55.742Z,98424.09
2023-04-23T06:47:23.523Z,98409.38
2023-04-23T06:49:52.506Z,98399.34
2023-04-23T06:52:20.202Z,98394.06
2023-04-23T06:54:47.788Z,98388.91
2023-04-23T06:57:16.114Z,98387.53
2023-04-23T06:59:43.726Z,98377.50
2023-04-23T07:02:11.779Z,98385.88
2023-04-23T07:04:39.543Z,98391.06
2023-04-23T07:07:08.671Z,98393.41
2023-04-23T07:09:36.325Z,98393.41
2023-04-23T07:12:04.034Z,98390.28
2023-04-23T07:14:31.645Z,98387.31
2023-04-23T07:16:59.910Z,98389.56
2023-04-23T07:19:27.584Z,98390.94
2023-04-23T07:21:55.254Z,98383.50
2023-04-23T07:24:26.370Z,98390.06
2023-04-23T07:26:53.969Z,98391.53
2023-04-23T07:29:21.820Z,98386.84
2023-04-23T07:31:49.384Z,98386.63
2023-04-23T07:34:17.073Z,98389.31
2023-04-23T07:36:44.818Z,98390.47
2023-04-23T07:39:12.715Z,98386.38
2023-04-23T07:41:41.944Z,98383.00
2023-04-23T07:44:09.600Z,98382.78
2023-04-23T07:46:37.304Z,98378.66
2023-04-23T07:49:04.858Z,98374.69
2023-04-23T07:51:32.415Z,98373.75
2023-04-23T07:54:00.235Z,98368.22
2023-04-23T07:56:28.000Z,98371.22
2023-04-23T07:58:58.249Z,98372.09
2023-04-23T08:01:26.078Z,98376.56
2023-04-23T08:03:59.157Z,98376.41
2023-04-23T08:06:27.782Z,98376.81
2023-04-23T08:08:56.085Z,98372.50
2023-04-23T08:11:23.735Z,98376.50
2023-04-23T08:13:51.400Z,98368.25
2023-04-23T08:16:20.525Z,98377.25
2023-04-23T08:19:03.760Z,98379.53
2023-04-23T08:21:32.977Z,98384.31
2023-04-23T08:24:01.195Z,98374.41
2023-04-23T08:26:28.787Z,98379.31
2023-04-23T08:28:56.692Z,98377.91
2023-04-23T08:31:27.185Z,98372.72
2023-04-23T08:33:55.229Z,98371.94
2023-04-23T08:36:22.849Z,98363.25
2023-04-23T08:38:50.409Z,98363.59
2023-04-23T08:41:21.189Z,98363.34
2023-04-23T08:43:52.296Z,98366.72
2023-04-23T08:46:21.140Z,98358.75
2023-04-23T08:48:54.152Z,98366.25
2023-04-23T08:51:23.241Z,98360.78
2023-04-23T08:53:53.265Z,98362.38
2023-04-23T08:56:21.207Z,98358.34
2023-04-23T08:58:49.868Z,98358.44
2023-04-23T09:01:17.674Z,98358.72
2023-04-23T09:03:46.029Z,98352.06
2023-04-23T09:06:15.160Z,98355.47
2023-04-23T09:08:43.140Z,98356.06
2023-04-23T09:11:10.743Z,98359.66
2023-04-23T09:13:38.434Z,98355.78
2023-04-23T09:16:06.427Z,98356.22
2023-04-23T09:18:34.101Z,98353.44
2023-04-23T09:21:03.973Z,98333.91
2023-04-23T09:23:34.536Z,98333.75
2023-04-23T09:26:07.075Z,98331.94
2023-04-23T09:28:38.137Z,98332.06
2023-04-23T09:31:06.485Z,98329.53
2023-04-23T09:33:36.297Z,98322.66
2023-04-23T09:36:07.057Z,98320.38
2023-04-23T09:38:36.032Z,98316.88
2023-04-23T09:41:21.866Z,98309.94
2023-04-23T09:43:49.745Z,98317.59
2023-04-23T09:46:17.305Z,98310.59
2023-04-23T09:48:45.975Z,98314.38
2023-04-23T09:51:14.939Z,98300.47
2023-04-23T09:53:45.829Z,98300.41
2023-04-23T09:56:13.434Z,98296.66
2023-04-23T09:58:40.998Z,98294.72
2023-04-23T10:01:09.397Z,98308.03
2023-04-23T10:03:38.582Z,98309.50
2023-04-23T10:06:17.263Z,98306.19
2023-04-23T10:08:54.656Z,98305.50
2023-04-23T10:11:22.426Z,98297.63
2023-04-23T10:13:50.479Z,98286.50
2023-04-23T10:16:24.423Z,98295.81
2023-04-23T10:18:56.999Z,98299.59
2023-04-23T10:21:30.667Z,98296.47
2023-04-23T10:24:07.242Z,98297.31
2023-04-23T10:26:36.030Z,98282.72
2023-04-23T10:29:04.150Z,98282.91
2023-04-23T10:31:33.602Z,98280.69
2023-04-23T10:34:01.985Z,98277.78
2023-04-23T10:36:29.827Z,98281.72
2023-04-23T10:39:00.777Z,98278.50
2023-04-23T10:41:37.342Z,98280.56
2023-04-23T10:44:05.750Z,98274.41
2023-04-23T10:46:36.434Z,98265.88
2023-04-23T10:49:07.499Z,98264.47
2023-04-23T10:52:14.584Z,98271.50
2023-04-23T10:54:23.337Z,98257.75
2023-04-23T10:56:59.657Z,98258.28
2023-04-23T10:59:29.484Z,98256.16
2023-04-23T11:01:58.818Z,98249.69
2023-04-23T11:04:28.776Z,98234.34
2023-04-23T11:06:58.730Z,98243.47
2023-04-23T11:09:30.628Z,98236.78
2023-04-23T11:11:59.883Z,98237.47
2023-04-23T11:14:38.532Z,98231.56
2023-04-23T11:17:07.369Z,98229.19
2023-04-23T11:19:36.968Z,98232.41
2023-04-23T11:22:06.521Z,98231.84
2023-04-23T11:24:37.064Z,98228.63
2023-04-23T11:27:08.438Z,98222.72
2023-04-23T11:29:36.028Z,98224.97
2023-04-23T11:32:05.343Z,98223.03
2023-04-23T11:34:34.081Z,98220.72
2023-04-23T11:37:04.836Z,98218.63
2023-04-23T11:39:32.425Z,98207.84
2023-04-23T11:42:02.948Z,98203.47
2023-04-23T11:44:32.267Z,98203.34
2023-04-23T11:47:02.178Z,98198.16
2023-04-23T11:49:29.864Z,98183.94
2023-04-23T11:52:00.442Z,98180.06
2023-04-23T11:54:29.495Z,98174.28
2023-04-23T11:56:58.010Z,98173.78
2023-04-23T11:59:25.805Z,98174.63
2023-04-23T12:01:56.103Z,98180.28
2023-04-23T12:04:24.958Z,98176.44
2023-04-23T12:06:54.601Z,98169.63
2023-04-23T12:09:23.019Z,98164.09
2023-04-23T12:11:52.010Z,98147.25
2023-04-23T12:14:23.883Z,98154.53
2023-04-23T12:16:52.413Z,98150.03
2023-04-23T12:19:27.594Z,98146.97
2023-04-23T12:21:57.071Z,98147.50
2023-04-23T12:24:26.124Z,98137.47
2023-04-23T12:26:55.951Z,98139.41
2023-04-23T12:29:24.130Z,98120.88
2023-04-23T12:31:53.243Z,98120.09
2023-04-23T12:34:22.522Z,98115.00
2023-04-23T12:36:51.405Z,98107.97
2023-04-23T12:39:23.810Z,98113.19
2023-04-23T12:41:52.404Z,98109.88
2023-04-23T12:44:20.161Z,98100.84
2023-04-23T12:46:51.037Z,98104.81
2023-04-23T12:49:18.814Z,98098.00
2023-04-23T12:51:48.100Z,98086.81
2023-04-23T12:54:15.668Z,98095.50
2023-04-23T12:56:43.286Z,98090.53
2023-04-23T12:59:11.859Z,98089.09
2023-04-23T13:01:39.522Z,98080.91
2023-04-23T13:04:07.832Z,98079.09
2023-04-23T13:06:35.795Z,98087.22
2023-04-23T13:09:05.351Z,98079.38
2023-04-23T13:11:33.283Z,98072.28
2023-04-23T13:14:00.896Z,98068.13
2023-04-23T13:16:28.576Z,98069.75
2023-04-23T13:18:56.360Z,98056.38
2023-04-23T13:21:26.218Z,98049.28
2023-04-23T13:23:54.408Z,98048.56
2023-04-23T13:26:23.536Z,98042.91
2023-04-23T13:28:51.240Z,98038.66
2023-04-23T13:31:18.877Z,98043.91
2023-04-23T13:33:46.552Z,98038.19
2023-04-23T13:36:14.168Z,98043.44
2023-04-23T13:38:41.807Z,98034.81
2023-04-23T13:41:09.420Z,98023.88
2023-04-23T13:43:38.416Z,98018.94
2023-04-23T13:46:06.154Z,98012.59
2023-04-23T13:48:33.884Z,98010.22
2023-04-23T13:51:02.235Z,98008.47
2023-04-23T13:53:30.072Z,98005.44
2023-04-23T13:55:58.117Z,97981.31
2023-04-23T13:58:25.810Z,97991.25
2023-04-23T14:00:54.711Z,97986.59
2023-04-23T14:03:22.460Z,97975.81
2023-04-23T14:05:50.187Z,97978.19
2023-04-23T14:08:17.837Z,97976.03
2023-04-23T14:10:45.667Z,97968.72
2023-04-23T14:13:13.332Z,97954.88
2023-04-23T14:15:42.662Z,97955.72
2023-04-23T14:18:11.925Z,97947.00
2023-04-23T14:20:39.594Z,97949.53
2023-04-23T14:23:46.879Z,97949.31
2023-04-23T14:26:29.522Z,97943.66
2023-04-23T14:29:05.318Z,97931.44
2023-04-23T14:31:34.005Z,97922.97
2023-04-23T14:34:02.996Z,97912.03
2023-04-23T14:36:30.704Z,97914.19
2023-04-23T14:39:04.804Z,97904.63
2023-04-23T14:41:32.862Z,97905.09
2023-04-23T14:44:01.902Z,97900.44
2023-04-23T14:46:29.707Z,97896.91
2023-04-23T14:48:57.394Z,97886.53
2023-04-23T14:51:27.303Z,97892.41
2023-04-23T14:53:56.675Z,97884.88
2023-04-23T14:56:24.743Z,97884.94
2023-04-23T14:58:52.281Z,97887.09
2023-04-23T15:01:19.985Z,97878.06
2023-04-23T15:03:47.826Z,97878.75
2023-04-23T15:06:15.642Z,97879.53
2023-04-23T15:08:44.641Z,97876.88
2023-04-23T15:11:14.041Z,97867.63
2023-04-23T15:13:46.131Z,97873.69
2023-04-23T15:16:29.041Z,97877.41
2023-04-23T15:19:10.028Z,97883.22
2023-04-23T15:21:37.990Z,97888.97
2023-04-23T15:24:07.805Z,97888.69
2023-04-23T15:26:36.346Z,97884.81
2023-04-23T15:29:04.957Z,97888.88
2023-04-23T15:31:32.728Z,97886.22
2023-04-23T15:34:01.064Z,97892.81
2023-04-23T15:36:28.813Z,97897.34
2023-04-23T15:38:56.491Z,97901.28
2023-04-23T15:41:27.075Z,97906.47
2023-04-23T15:43:55.522Z,97924.53
2023-04-23T15:46:23.165Z,97927.66
2023-04-23T15:48:50.849Z,97937.63
2023-04-23T15:51:18.639Z,97963.44
2023-04-23T15:53:46.254Z,97973.81
2023-04-23T15:56:13.894Z,97978.44
2023-04-23T15:58:42.923Z,97972.50
2023-04-23T16:01:11.285Z,97962.03
2023-04-23T16:03:39.148Z,97957.03
2023-04-23T16:06:07.156Z,97957.38
2023-04-23T16:08:34.856Z,97948.44
2023-04-23T16:11:03.386Z,97940.00
2023-04-23T16:13:31.113Z,97914.94
2023-04-23T16:16:00.214Z,97913.38
2023-04-23T16:18:27.948Z,97892.78
2023-04-23T16:20:55.627Z,97894.47
2023-04-23T16:23:23.239Z,97880.84
2023-04-23T16:25:51.116Z,97879.06
2023-04-23T16:28:19.297Z,97883.16
2023-04-23T16:30:47.421Z,97881.69
2023-04-23T16:33:16.763Z,97890.63
2023-04-23T16:35:44.790Z,97894.13
2023-04-23T16:38:12.900Z,97890.75
2023-04-23T16:40:40.586Z,97890.13
2023-04-23T16:43:08.393Z,97888.34
2023-04-23T16:45:36.435Z,97880.13
2023-04-23T16:48:04.532Z,97873.16
2023-04-23T16:50:33.698Z,97882.28
2023-04-23T16:53:02.210Z,97883.16
2023-04-23T16:55:30.384Z,97885.44
2023-04-23T16:57:58.398Z,97896.59
2023-04-23T17:00:26.551Z,97892.41
2023-04-23T17:02:54.681Z,97884.22
2023-04-23T17:05:24.112Z,97880.97
2023-04-23T17:07:53.889Z,97869.91
2023-04-23T17:10:21.639Z,97873.16
2023-04-23T17:12:53.854Z,97873.75
2023-04-23T17:15:22.605Z,97875.78
2023-04-23T17:17:50.504Z,97881.31
2023-04-23T17:20:18.648Z,97874.34
2023-04-23T17:22:48.139Z,97872.78
2023-04-23T17:25:17.514Z,97862.19
2023-04-23T17:27:45.875Z,97858.56
2023-04-23T17:30:14.241Z,97853.16
2023-04-23T17:32:41.863Z,97861.56
2023-04-23T17:35:10.991Z,97861.22
2023-04-23T17:37:39.000Z,97857.13
2023-04-23T17:40:08.128Z,97856.75
2023-04-23T17:42:37.142Z,97871.22
2023-04-23T17:45:05.875Z,97861.94
2023-04-23T17:47:33.521Z,97864.84
2023-04-23T17:50:01.117Z,97866.41
2023-04-23T17:52:28.746Z,97870.25
2023-04-23T17:54:56.697Z,97866.03
2023-04-23T17:57:24.339Z,97858.69
2023-04-23T17:59:53.246Z,97855.56
2023-04-23T18:02:21.217Z,97854.81
2023-04-23T18:04:48.850Z,97856.84
2023-04-23T18:07:16.514Z,97855.94
2023-04-23T18:09:44.107Z,97847.72
2023-04-23T18:12:11.832Z,97836.06
2023-04-23T18:14:39.417Z,97835.84
2023-04-23T18:17:08.434Z,97842.06
2023-04-23T18:19:36.024Z,97842.41
2023-04-23T18:22:03.661Z,97831.31
2023-04-23T18:24:31.245Z,97839.41
2023-04-23T18:26:59.006Z,97844.16
2023-04-23T18:29:29.332Z,97844.63
2023-04-23T18:31:57.295Z,97848.13
2023-04-23T18:34:26.330Z,97846.09
2023-04-23T18:36:55.742Z,97849.47
2023-04-23T18:39:23.454Z,97831.78
2023-04-23T18:41:51.401Z,97841.47
2023-04-23T18:44:19.292Z,97844.50
2023-04-23T18:46:46.962Z,97850.91
2023-04-23T18:49:41.307Z,97852.28
2023-04-23T18:52:09.040Z,97851.84
2023-04-23T18:54:36.642Z,97856.84
2023-04-23T18:57:04.349Z,97865.00
2023-04-23T18:59:34.827Z,97858.03
2023-04-23T19:02:03.117Z,97861.84
2023-04-23T19:04:31.931Z,97860.84
2023-04-23T19:07:01.286Z,97864.28
2023-04-23T19:09:28.959Z,97869.00
2023-04-23T19:11:56.692Z,97871.97
2023-04-23T19:14:24.261Z,97877.38
2023-04-23T19:16:51.903Z,97876.81
2023-04-23T19:19:19.567Z,97873.66
2023-04-23T19:21:47.192Z,97882.00
2023-04-23T19:24:16.127Z,97886.09
2023-04-23T19:26:45.675Z,97890.31
2023-04-23T19:29:13.317Z,97887.44
2023-04-23T19:31:40.914Z,97892.41
2023-04-23T19:34:08.614Z,97890.59
2023-04-23T19:36:36.241Z,97897.75
2023-04-23T19:39:03.797Z,97902.19
2023-04-23T19:41:32.776Z,97908.66
2023-04-23T19:44:00.364Z,97916.88
2023-04-23T19:46:27.947Z,97915.31
2023-04-23T19:48:55.953Z,97923.25
2023-04-23T19:51:24.855Z,97923.25
2023-04-23T19:53:53.903Z,97912.31
2023-04-23T19:56:22.940Z,97910.13
2023-04-23T19:58:51.898Z,97902.94
2023-04-23T20:01:19.725Z,97908.03
2023-04-23T20:03:50.756Z,97899.66
2023-04-23T20:06:18.561Z,97899.06
2023-04-23T20:09:01.964Z,97900.84
2023-04-23T20:11:29.743Z,97890.94
2023-04-23T20:13:58.718Z,97895.38
2023-04-23T20:16:26.398Z,97884.63
2023-04-23T20:18:55.428Z,97884.31
2023-04-23T20:21:23.388Z,97880.09
2023-04-23T20:23:53.132Z,97876.94
2023-04-23T20:26:21.607Z,97879.81
2023-04-23T20:28:50.126Z,97879.91
2023-04-23T20:31:21.162Z,97877.28
2023-04-23T20:33:48.907Z,97871.38
2023-04-23T20:36:16.891Z,97860.69
2023-04-23T20:38:44.850Z,97863.53
2023-04-23T20:41:12.675Z,97863.53
2023-04-23T20:43:40.474Z,97879.94
2023-04-23T20:46:10.169Z,97879.94
2023-04-23T20:48:39.366Z,97891.44
2023-04-23T20:51:11.114Z,97893.13
2023-04-23T20:53:39.010Z,97887.44
2023-04-23T20:56:07.090Z,97895.03
2023-04-23T20:58:36.302Z,97900.19
2023-04-23T21:01:07.258Z,97897.03
2023-04-23T21:03:36.985Z,97896.59
2023-04-23T21:06:07.773Z,97885.50
2023-04-23T21:08:37.828Z,97890.47
2023-04-23T21:11:09.922Z,97888.97
2023-04-23T21:13:38.612Z,97886.84
2023-04-23T21:16:06.720Z,97888.47
2023-04-23T21:18:34.857Z,97887.31
2023-04-23T21:21:03.071Z,97890.56
2023-04-23T21:23:32.411Z,97886.97
2023-04-23T21:26:00.318Z,97887.22
2023-04-23T21:28:28.282Z,97893.94
2023-04-23T21:30:56.973Z,97891.84
2023-04-23T21:33:25.805Z,97895.13
2023-04-23T21:35:54.633Z,97902.28
2023-04-23T21:38:22.325Z,97906.91
2023-04-23T21:40:51.615Z,97912.81
2023-04-23T21:43:19.829Z,97920.81
2023-04-23T21:45:47.990Z,97926.63
2023-04-23T21:48:15.924Z,97920.31
2023-04-23T21:50:43.891Z,97915.53
2023-04-23T21:53:13.246Z,97912.25
2023-04-23T21:55:41.350Z,97906.03
2023-04-23T22:00:41.533Z,97907.94
2023-04-23T22:03:11.426Z,97908.09
2023-04-23T22:05:39.608Z,97911.13
2023-04-23T22:08:07.895Z,97904.56
2023-04-23T22:10:38.492Z,97915.91
2023-04-23T22:13:06.392Z,97906.09
2023-04-23T22:15:35.482Z,97914.41
2023-04-23T22:18:03.196Z,97920.63
2023-04-23T22:20:31.554Z,97920.03
2023-04-23T22:22:59.287Z,97912.31
2023-04-23T22:25:27.262Z,97910.47
2023-04-23T22:27:55.012Z,97909.28
2023-04-23T22:30:22.640Z,97922.41
2023-04-23T22:32:51.794Z,97918.84
2023-04-23T22:35:19.965Z,97907.16
2023-04-23T22:37:47.728Z,97900.38
2023-04-23T22:40:15.446Z,97905.31
2023-04-23T22:42:43.401Z,97887.78
2023-04-23T22:45:11.592Z,97909.97
2023-04-23T22:47:39.374Z,97905.44
2023-04-23T22:50:09.979Z,97914.50
2023-04-23T22:52:37.861Z,97908.69
2023-04-23T22:55:06.364Z,97906.63
2023-04-23T22:57:34.138Z,97899.44
2023-04-23T23:00:01.965Z,97909.13
2023-04-23T23:02:29.723Z,97914.41
2023-04-23T23:04:57.644Z,97913.47
2023-04-23T23:07:26.747Z,97910.06
2023-04-23T23:09:54.585Z,97907.16
2023-04-23T23:12:22.402Z,97909.69
2023-04-23T23:14:50.202Z,97903.28
2023-04-23T23:17:17.829Z,97908.38
2023-04-23T23:19:45.629Z,97910.47
2023-04-23T23:22:13.325Z,97900.69
2023-04-23T23:24:42.360Z,97903.13
2023-04-23T23:27:10.135Z,97895.00
2023-04-23T23:29:37.915Z,97891.53
2023-04-23T23:32:05.820Z,97894.00
2023-04-23T23:34:33.661Z,97892.47
2023-04-23T23:37:01.497Z,97888.25
2023-04-23T23:39:29.136Z,97866.50
2023-04-23T23:41:59.821Z,97879.94
2023-04-23T23:44:27.696Z,97876.06
2023-04-23T23:46:55.557Z,97873.97
2023-04-23T23:49:25.000Z,97871.44
2023-04-23T23:51:52.988Z,97870.44
2023-04-23T23:54:21.206Z,97861.59
2023-04-23T23:56:49.051Z,97864.47
2023-04-23T23:59:18.059Z,97863.94
